Station Historical Data
Daily Summary for July 14, 2017 Units:  English    Metric   Both
« Previous Day
Next Day »
Daily Weekly Monthly Yearly Custom
  High: Low: Average:
Temperature: 80.5 °F 66.8 °F 73.3 °F
Dew Point: 71.5 °F 59.9 °F 67.1 °F
Humidity: 93% 62% 81%
Wind Speed: 14.0mph 0.0mph 3.9mph
Wind Gust: 19.0mph - -
Wind- - WSW
Pressure: 29.96 in 29.91 in -
Precipitation: 0.00 in    
Historical Graphs
 
 
Tabular Data for July 14, 2017
Time Temperature Dew Point Pressure Wind Wind Speed Wind Gust Humidity Rainfall Rate (Hourly)
00:04 68.8 °F 65.7 °F 29.93 in ENE 1.0 mph 5.0 mph 90% 0.00 in
00:09 68.6 °F 65.5 °F 29.93 in Calm   3.0 mph 90% 0.00 in
00:14 68.6 °F 65.5 °F 29.93 in East 1.0 mph 5.0 mph 90% 0.00 in
00:19 68.5 °F 65.4 °F 29.93 in East 1.0 mph 5.0 mph 90% 0.00 in
00:24 68.5 °F 65.4 °F 29.93 in East 2.0 mph 3.0 mph 90% 0.00 in
00:29 68.4 °F 65.4 °F 29.93 in East 1.0 mph 3.0 mph 90% 0.00 in
00:34 68.4 °F 65.7 °F 29.93 in East 1.0 mph 3.0 mph 91% 0.00 in
00:39 68.4 °F 65.7 °F 29.93 in East 1.0 mph 5.0 mph 91% 0.00 in
00:44 68.3 °F 65.6 °F 29.93 in Calm   2.0 mph 91% 0.00 in
00:49 68.2 °F 65.5 °F 29.93 in Calm   3.0 mph 91% 0.00 in
00:54 68.2 °F 65.5 °F 29.93 in Calm     91% 0.00 in
00:59 68.2 °F 65.5 °F 29.93 in Calm     91% 0.00 in
01:04 68.1 °F 65.4 °F 29.93 in Calm   2.0 mph 91% 0.00 in
01:09 68.1 °F 65.4 °F 29.93 in Calm     91% 0.00 in
01:14 68.2 °F 65.5 °F 29.93 in Calm     91% 0.00 in
01:19 68.2 °F 65.5 °F 29.93 in Calm     91% 0.00 in
01:24 68.2 °F 65.5 °F 29.93 in Calm     91% 0.00 in
01:29 68.4 °F 66.0 °F 29.93 in Calm     92% 0.00 in
01:34 68.5 °F 66.1 °F 29.93 in Calm     92% 0.00 in
01:39 68.7 °F 66.3 °F 29.93 in Calm     92% 0.00 in
01:44 68.8 °F 66.1 °F 29.93 in Calm     91% 0.00 in
01:49 68.8 °F 66.4 °F 29.93 in Calm     92% 0.00 in
01:54 68.9 °F 66.5 °F 29.93 in Calm     92% 0.00 in
01:59 69.0 °F 66.6 °F 29.93 in Calm     92% 0.00 in
02:04 69.0 °F 66.3 °F 29.93 in Calm   3.0 mph 91% 0.00 in
02:09 68.9 °F 66.2 °F 29.93 in Calm     91% 0.00 in
02:14 68.8 °F 66.1 °F 29.93 in Calm     91% 0.00 in
02:19 68.6 °F 65.9 °F 29.93 in Calm     91% 0.00 in
02:24 68.6 °F 65.9 °F 29.93 in Calm     91% 0.00 in
02:29 68.6 °F 65.9 °F 29.93 in Calm     91% 0.00 in
02:34 68.6 °F 65.9 °F 29.92 in Calm     91% 0.00 in
02:39 68.6 °F 65.9 °F 29.92 in Calm     91% 0.00 in
02:44 68.7 °F 66.0 °F 29.92 in Calm     91% 0.00 in
02:49 68.8 °F 66.1 °F 29.92 in Calm     91% 0.00 in
02:54 68.9 °F 66.2 °F 29.92 in Calm     91% 0.00 in
02:59 68.9 °F 66.2 °F 29.92 in Calm     91% 0.00 in
03:04 69.0 °F 66.3 °F 29.92 in Calm     91% 0.00 in
03:09 69.1 °F 66.4 °F 29.91 in Calm     91% 0.00 in
03:14 69.2 °F 66.1 °F 29.91 in Calm     90% 0.00 in
03:19 69.4 °F 66.3 °F 29.91 in Calm     90% 0.00 in
03:24 69.5 °F 66.4 °F 29.91 in Calm     90% 0.00 in
03:29 69.4 °F 66.3 °F 29.91 in Calm     90% 0.00 in
03:34 69.4 °F 66.3 °F 29.91 in Calm     90% 0.00 in
03:39 69.5 °F 66.4 °F 29.91 in Calm     90% 0.00 in
03:44 69.5 °F 66.4 °F 29.91 in Calm     90% 0.00 in
03:49 69.5 °F 66.4 °F 29.91 in Calm     90% 0.00 in
03:54 69.7 °F 66.6 °F 29.91 in Calm     90% 0.00 in
03:59 69.8 °F 66.7 °F 29.92 in Calm     90% 0.00 in
04:04 69.8 °F 66.7 °F 29.92 in Calm     90% 0.00 in
04:09 69.9 °F 66.8 °F 29.92 in Calm     90% 0.00 in
04:14 69.9 °F 66.8 °F 29.92 in Calm     90% 0.00 in
04:19 69.9 °F 66.8 °F 29.92 in Calm     90% 0.00 in
04:24 70.0 °F 66.9 °F 29.92 in Calm     90% 0.00 in
04:29 70.1 °F 67.0 °F 29.92 in Calm     90% 0.00 in
04:34 70.2 °F 67.1 °F 29.92 in Calm     90% 0.00 in
04:39 70.2 °F 67.1 °F 29.92 in Calm     90% 0.00 in
04:44 70.4 °F 67.3 °F 29.92 in Calm     90% 0.00 in
04:49 70.7 °F 67.6 °F 29.92 in Calm     90% 0.00 in
04:54 70.8 °F 67.7 °F 29.92 in Calm     90% 0.00 in
04:59 71.0 °F 68.2 °F 29.92 in Calm     91% 0.00 in
05:04 71.2 °F 68.4 °F 29.92 in Calm   2.0 mph 91% 0.00 in
05:09 71.3 °F 68.5 °F 29.92 in Calm     91% 0.00 in
05:14 71.4 °F 68.6 °F 29.93 in Calm     91% 0.00 in
05:19 71.5 °F 68.7 °F 29.93 in East 1.0 mph 2.0 mph 91% 0.00 in
05:24 71.6 °F 68.8 °F 29.93 in SSW 1.0 mph 3.0 mph 91% 0.00 in
05:29 71.8 °F 69.3 °F 29.93 in SW 2.0 mph 4.0 mph 92% 0.00 in
05:34 71.9 °F 69.4 °F 29.93 in WSW 2.0 mph 4.0 mph 92% 0.00 in
05:39 72.0 °F 69.5 °F 29.93 in Calm   4.0 mph 92% 0.00 in
05:44 72.0 °F 69.5 °F 29.93 in West 1.0 mph 5.0 mph 92% 0.00 in
05:49 72.0 °F 69.5 °F 29.93 in WSW 2.0 mph 5.0 mph 92% 0.00 in
05:54 71.9 °F 69.4 °F 29.92 in SW 2.0 mph 3.0 mph 92% 0.00 in
05:59 71.9 °F 69.4 °F 29.92 in SW 2.0 mph 4.0 mph 92% 0.00 in
06:04 71.8 °F 69.3 °F 29.92 in SW 2.0 mph 5.0 mph 92% 0.00 in
06:09 71.7 °F 69.3 °F 29.92 in SW 2.0 mph 5.0 mph 92% 0.00 in
06:14 71.7 °F 69.3 °F 29.92 in SW 2.0 mph 6.0 mph 92% 0.00 in
06:19 71.7 °F 69.3 °F 29.93 in SW 2.0 mph 6.0 mph 92% 0.00 in
06:24 71.6 °F 69.5 °F 29.93 in WSW 1.0 mph 4.0 mph 93% 0.00 in
06:29 71.7 °F 69.6 °F 29.93 in WSW 2.0 mph 4.0 mph 93% 0.00 in
06:34 71.7 °F 69.6 °F 29.93 in SW 2.0 mph 5.0 mph 93% 0.00 in
06:39 71.8 °F 69.7 °F 29.93 in WSW 2.0 mph 5.0 mph 93% 0.00 in
06:44 71.9 °F 69.8 °F 29.93 in Calm   5.0 mph 93% 0.00 in
06:49 71.9 °F 69.8 °F 29.93 in WSW 1.0 mph 4.0 mph 93% 0.00 in
06:54 72.1 °F 70.0 °F 29.92 in SW 5.0 mph 6.0 mph 93% 0.00 in
06:59 72.1 °F 70.0 °F 29.92 in SW 3.0 mph 6.0 mph 93% 0.00 in
07:04 72.2 °F 70.1 °F 29.92 in WSW 2.0 mph 6.0 mph 93% 0.00 in
07:09 72.3 °F 70.2 °F 29.93 in WSW 2.0 mph 4.0 mph 93% 0.00 in
07:14 72.4 °F 69.9 °F 29.92 in WSW 2.0 mph 5.0 mph 92% 0.00 in
07:19 72.4 °F 69.9 °F 29.92 in WSW 2.0 mph 5.0 mph 92% 0.00 in
07:24 72.6 °F 70.1 °F 29.93 in SW 4.0 mph 5.0 mph 92% 0.00 in
07:29 72.8 °F 70.3 °F 29.93 in WSW 3.0 mph 5.0 mph 92% 0.00 in
07:34 72.9 °F 70.4 °F 29.93 in SW 4.0 mph 6.0 mph 92% 0.00 in
07:39 73.0 °F 70.5 °F 29.93 in SSW 3.0 mph 6.0 mph 92% 0.00 in
07:44 73.2 °F 70.7 °F 29.93 in SW 6.0 mph 6.0 mph 92% 0.00 in
07:49 73.3 °F 70.8 °F 29.93 in SW 4.0 mph 7.0 mph 92% 0.00 in
07:54 73.3 °F 70.5 °F 29.93 in WSW 1.0 mph 6.0 mph 91% 0.00 in
07:59 73.3 °F 70.5 °F 29.93 in SW 3.0 mph 6.0 mph 91% 0.00 in
08:04 73.3 °F 70.5 °F 29.93 in WSW 4.0 mph 8.0 mph 91% 0.00 in
08:09 73.5 °F 70.7 °F 29.93 in WSW 5.0 mph 8.0 mph 91% 0.00 in
08:14 73.7 °F 70.9 °F 29.92 in WSW 3.0 mph 8.0 mph 91% 0.00 in
08:19 74.2 °F 71.4 °F 29.92 in West 5.0 mph 8.0 mph 91% 0.00 in
08:24 74.6 °F 71.5 °F 29.92 in WSW 4.0 mph 10.0 mph 90% 0.00 in
08:29 74.8 °F 71.3 °F 29.92 in SW 4.0 mph 10.0 mph 89% 0.00 in
08:34 74.9 °F 71.1 °F 29.92 in SW 4.0 mph 12.0 mph 88% 0.00 in
08:39 74.8 °F 71.0 °F 29.93 in WSW 4.0 mph 12.0 mph 88% 0.00 in
08:44 74.9 °F 71.1 °F 29.93 in WSW 5.0 mph 12.0 mph 88% 0.00 in
08:49 75.0 °F 70.9 °F 29.92 in WSW 4.0 mph 11.0 mph 87% 0.00 in
08:54 75.5 °F 71.4 °F 29.92 in SW 5.0 mph 11.0 mph 87% 0.00 in
08:59 75.6 °F 71.5 °F 29.92 in WNW 4.0 mph 9.0 mph 87% 0.00 in
09:04 75.6 °F 71.1 °F 29.93 in West 5.0 mph 9.0 mph 86% 0.00 in
09:09 75.1 °F 70.3 °F 29.93 in SW 7.0 mph 13.0 mph 85% 0.00 in
09:14 75.2 °F 70.7 °F 29.93 in West 3.0 mph 11.0 mph 86% 0.00 in
09:19 75.1 °F 70.3 °F 29.93 in SW 4.0 mph 13.0 mph 85% 0.00 in
09:24 75.3 °F 70.8 °F 29.93 in WSW 5.0 mph 13.0 mph 86% 0.00 in
09:29 75.7 °F 70.9 °F 29.93 in WSW 4.0 mph 10.0 mph 85% 0.00 in
09:34 75.6 °F 70.4 °F 29.93 in WSW 5.0 mph 14.0 mph 84% 0.00 in
09:39 75.9 °F 70.4 °F 29.93 in WSW 6.0 mph 14.0 mph 83% 0.00 in
09:44 76.1 °F 70.2 °F 29.93 in WSW 6.0 mph 13.0 mph 82% 0.00 in
09:49 75.9 °F 70.0 °F 29.93 in SW 4.0 mph 11.0 mph 82% 0.00 in
09:54 75.9 °F 70.0 °F 29.93 in WSW 5.0 mph 11.0 mph 82% 0.00 in
09:59 76.0 °F 69.7 °F 29.93 in WSW 6.0 mph 12.0 mph 81% 0.00 in
10:04 76.2 °F 69.6 °F 29.93 in WNW 6.0 mph 15.0 mph 80% 0.00 in
10:09 75.9 °F 69.6 °F 29.93 in WSW 7.0 mph 15.0 mph 81% 0.00 in
10:14 76.1 °F 70.2 °F 29.93 in WSW 5.0 mph 15.0 mph 82% 0.00 in
10:19 76.2 °F 69.9 °F 29.93 in South 12.0 mph 13.0 mph 81% 0.00 in
10:24 76.1 °F 70.2 °F 29.93 in WSW 6.0 mph 13.0 mph 82% 0.00 in
10:29 76.5 °F 70.2 °F 29.93 in South 8.0 mph 12.0 mph 81% 0.00 in
10:34 76.7 °F 70.4 °F 29.93 in SW 3.0 mph 15.0 mph 81% 0.00 in
10:39 77.1 °F 70.5 °F 29.93 in West 4.0 mph 14.0 mph 80% 0.00 in
10:44 76.9 °F 69.9 °F 29.94 in WNW 9.0 mph 12.0 mph 79% 0.00 in
10:49 75.8 °F 69.2 °F 29.93 in SSW 8.0 mph 14.0 mph 80% 0.00 in
10:54 75.1 °F 69.2 °F 29.93 in WSW 8.0 mph 14.0 mph 82% 0.00 in
10:59 74.9 °F 69.4 °F 29.93 in WSW 7.0 mph 15.0 mph 83% 0.00 in
11:04 75.4 °F 69.5 °F 29.93 in WSW 8.0 mph 16.0 mph 82% 0.00 in
11:09 76.1 °F 70.2 °F 29.93 in WSW 7.0 mph 16.0 mph 82% 0.00 in
11:14 76.3 °F 70.0 °F 29.94 in WSW 11.0 mph 13.0 mph 81% 0.00 in
11:19 76.0 °F 70.5 °F 29.94 in WNW 6.0 mph 15.0 mph 83% 0.00 in
11:24 76.7 °F 70.1 °F 29.94 in WSW 7.0 mph 16.0 mph 80% 0.00 in
11:29 76.0 °F 69.4 °F 29.94 in WSW 7.0 mph 14.0 mph 80% 0.00 in
11:34 75.3 °F 69.4 °F 29.94 in WNW 6.0 mph 10.0 mph 82% 0.00 in
11:39 74.8 °F 69.3 °F 29.94 in SW 4.0 mph 12.0 mph 83% 0.00 in
11:44 75.1 °F 69.2 °F 29.94 in West 4.0 mph 13.0 mph 82% 0.00 in
11:49 75.4 °F 69.9 °F 29.94 in WSW 5.0 mph 12.0 mph 83% 0.00 in
11:54 75.8 °F 69.9 °F 29.93 in WSW 8.0 mph 15.0 mph 82% 0.00 in
12:04 76.2 °F 69.9 °F 29.94 in WSW 8.0 mph 15.0 mph 81% 0.00 in
12:09 76.0 °F 69.7 °F 29.94 in WSW 8.0 mph 15.0 mph 81% 0.00 in
12:14 76.3 °F 69.7 °F 29.93 in WSW 6.0 mph 16.0 mph 80% 0.00 in
12:19 76.2 °F 68.8 °F 29.93 in West 5.0 mph 15.0 mph 78% 0.00 in
12:24 76.4 °F 69.8 °F 29.94 in SW 4.0 mph 15.0 mph 80% 0.00 in
12:29 76.7 °F 69.7 °F 29.94 in WSW 8.0 mph 15.0 mph 79% 0.00 in
12:34 77.3 °F 69.9 °F 29.94 in WSW 6.0 mph 15.0 mph 78% 0.00 in
12:39 77.9 °F 69.7 °F 29.94 in West 8.0 mph 17.0 mph 76% 0.00 in
12:44 77.6 °F 69.4 °F 29.94 in WSW 10.0 mph 16.0 mph 76% 0.00 in
12:49 77.7 °F 69.9 °F 29.93 in WSW 9.0 mph 13.0 mph 77% 0.00 in
12:54 78.6 °F 69.6 °F 29.93 in WSW 9.0 mph 13.0 mph 74% 0.00 in
12:59 79.3 °F 71.1 °F 29.93 in WSW 7.0 mph 15.0 mph 76% 0.00 in
13:04 78.8 °F 69.8 °F 29.93 in SW 7.0 mph 15.0 mph 74% 0.00 in
13:09 78.1 °F 68.7 °F 29.93 in SW 8.0 mph 15.0 mph 73% 0.00 in
13:14 78.4 °F 69.8 °F 29.93 in WSW 7.0 mph 16.0 mph 75% 0.00 in
13:19 78.8 °F 69.4 °F 29.93 in SW 7.0 mph 16.0 mph 73% 0.00 in
13:24 78.8 °F 70.2 °F 29.93 in West 8.0 mph 15.0 mph 75% 0.00 in
13:29 78.5 °F 69.9 °F 29.93 in SW 12.0 mph 14.0 mph 75% 0.00 in
13:34 78.6 °F 69.2 °F 29.93 in West 12.0 mph 17.0 mph 73% 0.00 in
13:39 79.3 °F 69.1 °F 29.93 in WSW 9.0 mph 14.0 mph 71% 0.00 in
13:44 79.3 °F 68.7 °F 29.93 in SW 12.0 mph 16.0 mph 70% 0.00 in
13:49 79.5 °F 70.1 °F 29.93 in SW 5.0 mph 15.0 mph 73% 0.00 in
13:54 79.6 °F 68.5 °F 29.93 in WSW 5.0 mph 13.0 mph 69% 0.00 in
13:59 80.0 °F 69.7 °F 29.93 in WSW 8.0 mph 17.0 mph 71% 0.00 in
14:04 80.0 °F 68.9 °F 29.93 in WSW 8.0 mph 17.0 mph 69% 0.00 in
14:09 80.1 °F 68.6 °F 29.93 in WSW 8.0 mph 16.0 mph 68% 0.00 in
14:14 80.2 °F 69.5 °F 29.93 in WSW 8.0 mph 18.0 mph 70% 0.00 in
14:19 79.7 °F 68.2 °F 29.93 in South 11.0 mph 18.0 mph 68% 0.00 in
14:24 79.9 °F 68.8 °F 29.93 in SSW 5.0 mph 14.0 mph 69% 0.00 in
14:29 79.8 °F 68.7 °F 29.93 in SW 7.0 mph 14.0 mph 69% 0.00 in
14:34 78.7 °F 68.5 °F 29.93 in SW 8.0 mph 16.0 mph 71% 0.00 in
14:39 78.4 °F 67.4 °F 29.93 in SW 8.0 mph 16.0 mph 69% 0.00 in
14:44 77.5 °F 67.8 °F 29.93 in WSW 5.0 mph 14.0 mph 72% 0.00 in
14:49 77.1 °F 66.1 °F 29.93 in SSW 11.0 mph 16.0 mph 69% 0.00 in
14:54 76.9 °F 67.6 °F 29.93 in WNW 7.0 mph 12.0 mph 73% 0.00 in
14:59 77.8 °F 68.8 °F 29.92 in West 5.0 mph 12.0 mph 74% 0.00 in
15:04 79.3 °F 68.7 °F 29.92 in West 4.0 mph 13.0 mph 70% 0.00 in
15:09 79.5 °F 68.0 °F 29.92 in SW 7.0 mph 13.0 mph 68% 0.00 in
15:14 78.4 °F 67.8 °F 29.92 in SW 5.0 mph 10.0 mph 70% 0.00 in
15:19 78.4 °F 68.2 °F 29.92 in SW 12.0 mph 14.0 mph 71% 0.00 in
15:24 78.9 °F 68.3 °F 29.92 in SW 4.0 mph 12.0 mph 70% 0.00 in
15:29 78.9 °F 66.1 °F 29.92 in SW 6.0 mph 12.0 mph 65% 0.00 in
15:34 80.5 °F 68.1 °F 29.92 in WSW 7.0 mph 14.0 mph 66% 0.00 in
15:39 80.1 °F 65.9 °F 29.92 in West 7.0 mph 12.0 mph 62% 0.00 in
15:44 80.1 °F 66.4 °F 29.92 in WSW 7.0 mph 17.0 mph 63% 0.00 in
15:49 79.0 °F 65.3 °F 29.92 in WSW 8.0 mph 17.0 mph 63% 0.00 in
15:54 78.5 °F 66.2 °F 29.92 in SW 6.0 mph 11.0 mph 66% 0.00 in
15:59 78.2 °F 65.9 °F 29.92 in WSW 6.0 mph 12.0 mph 66% 0.00 in
16:04 77.7 °F 66.3 °F 29.92 in SSW 7.0 mph 12.0 mph 68% 0.00 in
16:09 78.2 °F 66.8 °F 29.92 in West 4.0 mph 11.0 mph 68% 0.00 in
16:14 79.4 °F 67.0 °F 29.92 in West 8.0 mph 12.0 mph 66% 0.00 in
16:19 79.0 °F 66.7 °F 29.92 in WSW 7.0 mph 14.0 mph 66% 0.00 in
16:24 78.1 °F 66.2 °F 29.92 in WNW 9.0 mph 11.0 mph 67% 0.00 in
16:29 77.3 °F 65.9 °F 29.92 in WSW 7.0 mph 17.0 mph 68% 0.00 in
16:34 77.1 °F 66.6 °F 29.92 in WSW 8.0 mph 17.0 mph 70% 0.00 in
16:39 76.6 °F 66.5 °F 29.92 in WSW 8.0 mph 17.0 mph 71% 0.00 in
16:44 76.9 °F 67.6 °F 29.92 in WSW 7.0 mph 17.0 mph 73% 0.00 in
16:49 77.7 °F 68.0 °F 29.92 in SW 5.0 mph 12.0 mph 72% 0.00 in
16:54 77.8 °F 68.0 °F 29.92 in WNW 8.0 mph 14.0 mph 72% 0.00 in
16:59 77.4 °F 68.1 °F 29.92 in SW 7.0 mph 14.0 mph 73% 0.00 in
17:04 77.0 °F 68.1 °F 29.92 in WSW 5.0 mph 14.0 mph 74% 0.00 in
17:09 76.7 °F 67.8 °F 29.92 in West 8.0 mph 14.0 mph 74% 0.00 in
17:14 76.5 °F 68.0 °F 29.92 in West 9.0 mph 15.0 mph 75% 0.00 in
17:19 76.6 °F 68.1 °F 29.92 in SW 6.0 mph 14.0 mph 75% 0.00 in
17:24 77.2 °F 68.3 °F 29.92 in WSW 7.0 mph 14.0 mph 74% 0.00 in
17:29 76.9 °F 68.0 °F 29.92 in WSW 7.0 mph 16.0 mph 74% 0.00 in
17:34 77.0 °F 67.7 °F 29.92 in WSW 7.0 mph 19.0 mph 73% 0.00 in
17:39 76.5 °F 66.4 °F 29.92 in SW 6.0 mph 19.0 mph 71% 0.00 in
17:44 75.9 °F 67.0 °F 29.92 in WSW 7.0 mph 15.0 mph 74% 0.00 in
17:49 75.7 °F 67.2 °F 29.92 in SW 11.0 mph 12.0 mph 75% 0.00 in
17:54 75.5 °F 67.4 °F 29.92 in WSW 6.0 mph 15.0 mph 76% 0.00 in
17:59 75.5 °F 67.8 °F 29.92 in WSW 6.0 mph 15.0 mph 77% 0.00 in
18:04 75.8 °F 67.7 °F 29.92 in WSW 6.0 mph 12.0 mph 76% 0.00 in
18:09 75.9 °F 67.8 °F 29.92 in WSW 7.0 mph 17.0 mph 76% 0.00 in
18:14 75.4 °F 67.3 °F 29.92 in WSW 8.0 mph 17.0 mph 76% 0.00 in
18:19 75.5 °F 67.0 °F 29.92 in WSW 7.0 mph 17.0 mph 75% 0.00 in
18:24 75.1 °F 67.0 °F 29.92 in WSW 8.0 mph 19.0 mph 76% 0.00 in
18:29 74.8 °F 67.1 °F 29.92 in WSW 7.0 mph 15.0 mph 77% 0.00 in
18:34 75.0 °F 67.3 °F 29.92 in SSW 7.0 mph 14.0 mph 77% 0.00 in
18:39 74.7 °F 67.0 °F 29.92 in WNW 14.0 mph 14.0 mph 77% 0.00 in
18:44 74.7 °F 67.0 °F 29.92 in SSW 9.0 mph 14.0 mph 77% 0.00 in
18:49 74.8 °F 67.5 °F 29.92 in WSW 11.0 mph 16.0 mph 78% 0.00 in
18:54 75.0 °F 67.3 °F 29.92 in WSW 7.0 mph 16.0 mph 77% 0.00 in
18:59 75.0 °F 67.3 °F 29.92 in WSW 6.0 mph 12.0 mph 77% 0.00 in
19:04 74.9 °F 67.6 °F 29.92 in WSW 6.0 mph 12.0 mph 78% 0.00 in
19:09 74.6 °F 67.3 °F 29.92 in WSW 7.0 mph 13.0 mph 78% 0.00 in
19:14 74.5 °F 67.2 °F 29.92 in WSW 7.0 mph 13.0 mph 78% 0.00 in
19:19 74.0 °F 67.1 °F 29.92 in WSW 9.0 mph 13.0 mph 79% 0.00 in
19:24 73.7 °F 67.1 °F 29.92 in SW 5.0 mph 15.0 mph 80% 0.00 in
19:29 73.5 °F 66.9 °F 29.92 in SW 10.0 mph 15.0 mph 80% 0.00 in
19:34 73.5 °F 67.3 °F 29.92 in SW 4.0 mph 11.0 mph 81% 0.00 in
19:39 73.5 °F 67.3 °F 29.92 in West 4.0 mph 13.0 mph 81% 0.00 in
19:44 73.4 °F 67.2 °F 29.93 in WSW 10.0 mph 12.0 mph 81% 0.00 in
19:49 73.4 °F 67.6 °F 29.93 in WNW 2.0 mph 12.0 mph 82% 0.00 in
19:54 72.3 °F 64.3 °F 29.93 in West 5.0 mph 12.0 mph 76% 0.00 in
19:59 71.6 °F 63.3 °F 29.94 in NW 4.0 mph 12.0 mph 75% 0.00 in
20:04 71.5 °F 63.5 °F 29.94 in NW 3.0 mph 9.0 mph 76% 0.00 in
20:09 71.7 °F 63.4 °F 29.93 in NNW 1.0 mph 5.0 mph 75% 0.00 in
20:14 71.8 °F 63.4 °F 29.94 in NW 2.0 mph 5.0 mph 75% 0.00 in
20:19 71.7 °F 63.4 °F 29.94 in Calm   5.0 mph 75% 0.00 in
20:24 71.8 °F 63.4 °F 29.94 in WNW 2.0 mph 6.0 mph 75% 0.00 in
20:29 71.9 °F 63.2 °F 29.93 in NW 2.0 mph 6.0 mph 74% 0.00 in
20:34 71.8 °F 63.1 °F 29.93 in WNW 2.0 mph 5.0 mph 74% 0.00 in
20:39 71.8 °F 62.7 °F 29.93 in WNW 1.0 mph 9.0 mph 73% 0.00 in
20:44 71.7 °F 62.6 °F 29.93 in WNW 4.0 mph 5.0 mph 73% 0.00 in
20:49 71.5 °F 62.8 °F 29.93 in West 3.0 mph 7.0 mph 74% 0.00 in
20:54 71.4 °F 62.3 °F 29.94 in WNW 2.0 mph 7.0 mph 73% 0.00 in
20:59 71.4 °F 62.3 °F 29.94 in WNW 2.0 mph 7.0 mph 73% 0.00 in
21:04 71.4 °F 62.3 °F 29.94 in WNW 2.0 mph 5.0 mph 73% 0.00 in
21:09 71.4 °F 61.9 °F 29.94 in WNW 3.0 mph 5.0 mph 72% 0.00 in
21:14 71.4 °F 61.9 °F 29.94 in WNW 2.0 mph 5.0 mph 72% 0.00 in
21:19 71.4 °F 61.9 °F 29.94 in WNW 2.0 mph 5.0 mph 72% 0.00 in
21:24 71.3 °F 61.4 °F 29.94 in Calm   4.0 mph 71% 0.00 in
21:29 70.8 °F 61.3 °F 29.94 in Calm   2.0 mph 72% 0.00 in
21:34 70.7 °F 61.6 °F 29.94 in WNW 2.0 mph 3.0 mph 73% 0.00 in
21:39 70.7 °F 61.2 °F 29.94 in West 2.0 mph 5.0 mph 72% 0.00 in
21:44 70.7 °F 61.2 °F 29.95 in West 4.0 mph 5.0 mph 72% 0.00 in
21:49 70.6 °F 61.1 °F 29.95 in WNW 1.0 mph 4.0 mph 72% 0.00 in
21:54 70.5 °F 60.6 °F 29.95 in West 2.0 mph 5.0 mph 71% 0.00 in
21:59 70.6 °F 60.7 °F 29.95 in WNW 2.0 mph 5.0 mph 71% 0.00 in
22:04 70.3 °F 60.4 °F 29.96 in West 2.0 mph 5.0 mph 71% 0.00 in
22:09 70.2 °F 60.4 °F 29.95 in West 2.0 mph 4.0 mph 71% 0.00 in
22:14 69.9 °F 60.5 °F 29.95 in West 2.0 mph 4.0 mph 72% 0.00 in
22:19 69.7 °F 60.3 °F 29.95 in Calm   1.0 mph 72% 0.00 in
22:24 69.3 °F 60.3 °F 29.95 in Calm     73% 0.00 in
22:29 68.9 °F 60.3 °F 29.95 in Calm     74% 0.00 in
22:34 68.6 °F 60.0 °F 29.96 in Calm     74% 0.00 in
22:39 68.3 °F 60.1 °F 29.95 in Calm     75% 0.00 in
22:44 68.1 °F 60.2 °F 29.96 in Calm     76% 0.00 in
22:49 68.2 °F 60.3 °F 29.95 in Calm   3.0 mph 76% 0.00 in
22:54 68.1 °F 60.2 °F 29.96 in WNW 4.0 mph 5.0 mph 76% 0.00 in
22:59 68.1 °F 60.2 °F 29.96 in NW 1.0 mph 5.0 mph 76% 0.00 in
23:04 68.2 °F 60.3 °F 29.96 in WNW 1.0 mph 4.0 mph 76% 0.00 in
23:09 68.1 °F 60.2 °F 29.96 in NW 1.0 mph 3.0 mph 76% 0.00 in
23:14 67.9 °F 60.1 °F 29.96 in NW 1.0 mph 4.0 mph 76% 0.00 in
23:19 67.8 °F 60.0 °F 29.95 in NW 2.0 mph 4.0 mph 76% 0.00 in
23:24 67.6 °F 60.1 °F 29.96 in WNW 1.0 mph 4.0 mph 77% 0.00 in
23:29 67.4 °F 59.9 °F 29.95 in Calm   2.0 mph 77% 0.00 in
23:39 67.2 °F 60.1 °F 29.96 in Calm   2.0 mph 78% 0.00 in
23:44 67.3 °F 60.2 °F 29.95 in NNW 1.0 mph 4.0 mph 78% 0.00 in
23:49 67.1 °F 60.0 °F 29.96 in Calm   2.0 mph 78% 0.00 in
23:54 66.8 °F 60.1 °F 29.96 in WNW 1.0 mph 3.0 mph 79% 0.00 in
23:59 66.8 °F 60.1 °F 29.95 in Calm   3.0 mph 79% 0.00 in
Buffalo, New York, USA
Compliments of Weather Underground - 2.5 mb